createdAt,value
2019-04-07T00:00:15.444Z,56.30
2019-04-07T00:02:47.567Z,56.90
2019-04-07T00:05:19.551Z,57.10
2019-04-07T00:07:52.084Z,56.70
2019-04-07T00:10:23.709Z,56.60
2019-04-07T00:12:55.201Z,57.40
2019-04-07T00:15:26.488Z,57.20
2019-04-07T00:17:58.344Z,56.90
2019-04-07T00:20:28.931Z,56.30
2019-04-07T00:23:00.991Z,56.30
2019-04-07T00:25:33.059Z,56.30
2019-04-07T00:28:04.506Z,56.80
2019-04-07T00:30:36.532Z,56.50
2019-04-07T00:33:08.535Z,56.60
2019-04-07T00:35:39.727Z,56.30
2019-04-07T00:38:11.473Z,56.60
2019-04-07T00:40:43.789Z,56.10
2019-04-07T00:43:15.373Z,56.60
2019-04-07T00:45:47.023Z,56.90
2019-04-07T00:48:17.820Z,57.50
2019-04-07T00:50:49.372Z,57.40
2019-04-07T00:53:20.084Z,57.40
2019-04-07T00:55:54.204Z,56.80
2019-04-07T00:58:26.931Z,57.10
2019-04-07T01:00:57.095Z,56.70
2019-04-07T01:03:29.134Z,56.40
2019-04-07T01:06:01.193Z,56.30
2019-04-07T01:08:32.659Z,56.90
2019-04-07T01:11:04.652Z,56.90
2019-04-07T01:13:37.341Z,56.90
2019-04-07T01:16:09.795Z,56.40
2019-04-07T01:18:41.471Z,56.70
2019-04-07T01:21:13.823Z,56.60
2019-04-07T01:23:46.830Z,56.60
2019-04-07T01:26:17.310Z,56.80
2019-04-07T01:28:48.684Z,56.80
2019-04-07T01:31:22.565Z,56.80
2019-04-07T01:33:54.457Z,56.90
2019-04-07T01:36:26.529Z,57.10
2019-04-07T01:38:58.713Z,57.20
2019-04-07T01:41:47.246Z,57.20
2019-04-07T01:44:27.648Z,57.50
2019-04-07T01:47:15.083Z,57.80
2019-04-07T01:49:52.394Z,58.10
2019-04-07T01:52:45.863Z,57.80
2019-04-07T01:55:36.717Z,57.90
2019-04-07T01:58:20.040Z,57.90
2019-04-07T02:01:10.833Z,57.90
2019-04-07T02:03:51.137Z,58.00
2019-04-07T02:06:47.760Z,57.80
2019-04-07T02:09:25.044Z,57.60
2019-04-07T02:12:14.739Z,57.60
2019-04-07T02:15:17.411Z,57.80
2019-04-07T02:18:08.014Z,57.60
2019-04-07T02:21:08.498Z,57.60
2019-04-07T02:24:06.416Z,58.10
2019-04-07T02:27:02.746Z,58.00
2019-04-07T02:29:52.149Z,58.20
2019-04-07T02:32:52.538Z,58.20
2019-04-07T02:35:41.965Z,58.20
2019-04-07T02:38:28.116Z,58.50
2019-04-07T02:41:17.836Z,58.80
2019-04-07T02:44:23.917Z,59.10
2019-04-07T02:47:26.311Z,59.30
2019-04-07T02:50:15.935Z,59.30
2019-04-07T02:53:04.054Z,59.20
2019-04-07T02:55:45.552Z,59.40
2019-04-07T02:58:31.299Z,59.50
2019-04-07T03:01:26.142Z,59.50
2019-04-07T03:04:07.498Z,59.30
2019-04-07T03:07:04.918Z,59.50
2019-04-07T03:09:49.153Z,59.90
2019-04-07T03:12:37.288Z,59.00
2019-04-07T03:15:34.321Z,58.80
2019-04-07T03:18:42.795Z,58.80
2019-04-07T03:21:38.862Z,58.80
2019-04-07T03:24:41.208Z,58.70
2019-04-07T03:27:36.707Z,59.00
2019-04-07T03:30:27.083Z,59.30
2019-04-07T03:33:09.967Z,59.40
2019-04-07T03:36:12.824Z,59.50
2019-04-07T03:38:55.760Z,59.50
2019-04-07T03:41:42.315Z,59.50
2019-04-07T03:44:41.601Z,59.30
2019-04-07T03:47:35.498Z,59.20
2019-04-07T03:50:18.620Z,59.50
2019-04-07T03:53:08.213Z,59.70
2019-04-07T03:55:49.455Z,59.60
2019-04-07T03:58:49.416Z,59.30
2019-04-07T04:01:39.579Z,59.50
2019-04-07T04:04:45.731Z,59.30
2019-04-07T04:07:30.727Z,59.20
2019-04-07T04:10:01.970Z,59.10
2019-04-07T04:12:56.320Z,59.10
2019-04-07T04:15:31.797Z,59.00
2019-04-07T04:18:03.417Z,59.00
2019-04-07T04:20:34.666Z,58.60
2019-04-07T04:23:06.304Z,58.50
2019-04-07T04:25:38.512Z,58.60
2019-04-07T04:28:10.138Z,58.60
2019-04-07T04:30:41.993Z,58.50
2019-04-07T04:33:13.439Z,58.60
2019-04-07T04:35:44.664Z,58.40
2019-04-07T04:38:16.683Z,58.30
2019-04-07T04:40:48.055Z,58.40
2019-04-07T04:43:19.790Z,58.50
2019-04-07T04:45:50.409Z,58.40
2019-04-07T04:48:25.962Z,58.20
2019-04-07T04:50:58.053Z,58.20
2019-04-07T04:53:30.705Z,58.10
2019-04-07T04:56:02.979Z,58.00
2019-04-07T04:58:34.885Z,58.20
2019-04-07T05:01:06.256Z,58.10
2019-04-07T05:03:38.340Z,58.40
2019-04-07T05:06:10.304Z,58.60
2019-04-07T05:08:43.297Z,58.70
2019-04-07T05:11:14.704Z,58.50
2019-04-07T05:13:46.727Z,58.60
2019-04-07T05:16:18.729Z,58.50
2019-04-07T05:18:50.646Z,58.40
2019-04-07T05:21:21.827Z,58.50
2019-04-07T05:23:53.903Z,58.60
2019-04-07T05:26:25.600Z,58.40
2019-04-07T05:28:56.869Z,58.10
2019-04-07T05:31:28.335Z,57.90
2019-04-07T05:34:00.398Z,58.20
2019-04-07T05:36:32.497Z,57.90
2019-04-07T05:39:06.534Z,57.80
2019-04-07T05:41:38.570Z,57.50
2019-04-07T05:44:10.037Z,57.40
2019-04-07T05:46:42.527Z,57.00
2019-04-07T05:49:16.239Z,57.00
2019-04-07T05:51:47.216Z,56.80
2019-04-07T05:54:19.760Z,56.60
2019-04-07T05:56:52.553Z,56.50
2019-04-07T05:59:24.248Z,56.20
2019-04-07T06:01:59.847Z,56.30
2019-04-07T06:04:29.099Z,56.80
2019-04-07T06:07:01.212Z,56.10
2019-04-07T06:09:33.821Z,55.90
2019-04-07T06:12:08.515Z,55.90
2019-04-07T06:14:38.934Z,55.80
2019-04-07T06:17:10.816Z,56.00
2019-04-07T06:19:42.358Z,55.60
2019-04-07T06:22:17.455Z,55.60
2019-04-07T06:24:47.105Z,55.60
2019-04-07T06:27:18.127Z,55.50
2019-04-07T06:29:50.119Z,55.40
2019-04-07T06:32:21.905Z,55.40
2019-04-07T06:34:53.020Z,55.40
2019-04-07T06:37:27.787Z,55.70
2019-04-07T06:39:57.726Z,55.40
2019-04-07T06:42:33.197Z,55.30
2019-04-07T06:45:02.350Z,55.40
2019-04-07T06:47:46.004Z,55.30
2019-04-07T06:50:47.555Z,55.30
2019-04-07T06:53:20.171Z,55.20
2019-04-07T06:56:08.982Z,55.30
2019-04-07T06:59:17.640Z,55.20
2019-04-07T07:02:07.351Z,55.10
2019-04-07T07:04:49.750Z,55.10
2019-04-07T07:07:48.195Z,55.10
2019-04-07T07:10:40.135Z,55.00
2019-04-07T07:13:35.448Z,55.00
2019-04-07T07:16:31.794Z,55.00
2019-04-07T07:19:33.176Z,55.20
2019-04-07T07:22:16.558Z,55.00
2019-04-07T07:24:49.101Z,55.10
2019-04-07T07:27:20.814Z,55.40
2019-04-07T07:29:53.738Z,55.30
2019-04-07T07:32:25.940Z,55.20
2019-04-07T07:34:57.586Z,55.00
2019-04-07T07:37:29.012Z,55.80
2019-04-07T07:40:01.016Z,55.40
2019-04-07T07:42:32.981Z,55.30
2019-04-07T07:45:08.229Z,55.00
2019-04-07T07:47:38.385Z,54.70
2019-04-07T07:50:10.278Z,55.20
2019-04-07T07:52:43.264Z,55.00
2019-04-07T07:55:14.228Z,54.60
2019-04-07T07:57:45.722Z,54.40
2019-04-07T08:00:17.264Z,54.40
2019-04-07T08:02:51.475Z,54.30
2019-04-07T08:05:22.732Z,54.40
2019-04-07T08:07:55.160Z,54.70
2019-04-07T08:10:27.613Z,55.00
2019-04-07T08:12:59.652Z,55.00
2019-04-07T08:15:33.223Z,54.80
2019-04-07T08:18:07.166Z,55.30
2019-04-07T08:20:38.449Z,54.70
2019-04-07T08:23:11.833Z,55.00
2019-04-07T08:25:43.745Z,55.70
2019-04-07T08:28:15.798Z,55.00
2019-04-07T08:30:49.061Z,54.80
2019-04-07T08:33:20.435Z,55.00
2019-04-07T08:35:54.859Z,54.90
2019-04-07T08:38:27.987Z,54.80
2019-04-07T08:40:59.483Z,54.60
2019-04-07T08:43:31.920Z,55.20
2019-04-07T08:46:05.053Z,54.90
2019-04-07T08:48:37.432Z,54.50
2019-04-07T08:51:08.473Z,54.30
2019-04-07T08:53:43.567Z,54.80
2019-04-07T08:56:13.988Z,54.50
2019-04-07T08:58:45.986Z,54.60
2019-04-07T09:01:20.365Z,54.60
2019-04-07T09:03:51.896Z,54.20
2019-04-07T09:06:27.268Z,54.40
2019-04-07T09:08:57.376Z,54.80
2019-04-07T09:11:28.272Z,54.70
2019-04-07T09:14:00.191Z,54.90
2019-04-07T09:16:52.839Z,55.00
2019-04-07T09:19:44.331Z,55.10
2019-04-07T09:22:30.741Z,55.20
2019-04-07T09:25:31.927Z,55.40
2019-04-07T09:28:23.739Z,55.40
2019-04-07T09:31:11.987Z,55.50
2019-04-07T09:33:58.554Z,55.50
2019-04-07T09:36:51.283Z,55.70
2019-04-07T09:39:34.014Z,56.00
2019-04-07T09:42:18.615Z,55.70
2019-04-07T09:45:12.746Z,55.70
2019-04-07T09:48:07.594Z,55.80
2019-04-07T09:50:55.180Z,56.00
2019-04-07T09:53:33.790Z,56.20
2019-04-07T09:56:32.870Z,56.00
2019-04-07T09:59:20.573Z,56.50
2019-04-07T10:02:14.678Z,56.10
2019-04-07T10:04:55.870Z,56.20
2019-04-07T10:07:45.207Z,56.60
2019-04-07T10:10:39.969Z,56.70
2019-04-07T10:13:34.068Z,56.90
2019-04-07T10:16:24.744Z,56.80
2019-04-07T10:19:24.403Z,56.90
2019-04-07T10:22:13.877Z,57.00
2019-04-07T10:24:58.476Z,56.90
2019-04-07T10:27:48.749Z,56.90
2019-04-07T10:30:41.452Z,56.90
2019-04-07T10:33:21.508Z,57.10
2019-04-07T10:36:11.833Z,57.00
2019-04-07T10:39:02.043Z,57.00
2019-04-07T10:41:48.283Z,57.10
2019-04-07T10:44:44.530Z,57.70
2019-04-07T10:47:38.509Z,57.00
2019-04-07T10:50:27.223Z,57.30
2019-04-07T10:53:31.298Z,57.10
2019-04-07T10:56:30.877Z,57.30
2019-04-07T10:59:24.451Z,57.30
2019-04-07T11:02:23.912Z,57.40
2019-04-07T11:05:13.136Z,57.40
2019-04-07T11:08:02.512Z,57.30
2019-04-07T11:14:31.761Z,57.50
2019-04-07T11:17:22.545Z,57.70
2019-04-07T11:20:01.533Z,57.70
2019-04-07T11:22:47.947Z,57.80
2019-04-07T11:25:29.562Z,57.80
2019-04-07T11:28:23.019Z,57.80
2019-04-07T11:31:13.184Z,57.80
2019-04-07T11:34:16.000Z,57.90
2019-04-07T11:37:10.806Z,57.80
2019-04-07T11:40:04.814Z,58.00
2019-04-07T11:42:50.688Z,57.80
2019-04-07T11:45:39.037Z,57.90
2019-04-07T11:48:29.777Z,57.90
2019-04-07T11:51:26.612Z,57.80
2019-04-07T11:54:14.302Z,57.90
2019-04-07T11:57:07.451Z,57.90
2019-04-07T12:00:03.989Z,57.90
2019-04-07T12:02:51.837Z,58.00
2019-04-07T12:05:35.414Z,57.90
2019-04-07T12:08:25.120Z,57.80
2019-04-07T12:11:06.755Z,57.90
2019-04-07T12:13:57.184Z,57.90
2019-04-07T12:17:02.429Z,58.10
2019-04-07T12:19:54.523Z,57.90
2019-04-07T12:22:44.745Z,58.10
2019-04-07T12:25:37.317Z,58.00
2019-04-07T12:28:30.067Z,58.20
2019-04-07T12:31:20.435Z,58.10
2019-04-07T12:34:12.197Z,58.20
2019-04-07T12:36:54.773Z,58.30
2019-04-07T12:39:47.282Z,58.30
2019-04-07T12:42:35.727Z,58.40
2019-04-07T12:45:30.000Z,58.50
2019-04-07T12:48:21.522Z,58.30
2019-04-07T12:51:19.911Z,58.50
2019-04-07T12:54:12.847Z,58.50
2019-04-07T12:57:15.533Z,58.60
2019-04-07T12:59:59.590Z,58.50
2019-04-07T13:02:47.501Z,58.50
2019-04-07T13:05:41.137Z,58.60
2019-04-07T13:08:34.984Z,58.50
2019-04-07T13:11:25.445Z,58.50
2019-04-07T13:14:10.130Z,58.70
2019-04-07T13:17:02.560Z,56.70
2019-04-07T13:19:49.980Z,54.90
2019-04-07T13:22:37.726Z,52.80
2019-04-07T13:25:25.119Z,52.50
2019-04-07T13:28:08.176Z,54.20
2019-04-07T13:30:56.778Z,55.60
2019-04-07T13:33:39.927Z,56.40
2019-04-07T13:36:33.317Z,56.70
2019-04-07T13:39:23.791Z,57.10
2019-04-07T13:42:18.137Z,57.40
2019-04-07T13:45:13.237Z,57.60
2019-04-07T13:48:06.187Z,57.80
2019-04-07T13:50:49.204Z,58.00
2019-04-07T13:53:38.316Z,58.10
2019-04-07T13:56:19.469Z,58.00
2019-04-07T13:59:10.149Z,58.50
2019-04-07T14:01:54.592Z,58.40
2019-04-07T14:04:56.182Z,58.00
2019-04-07T14:08:04.139Z,58.00
2019-04-07T14:10:55.063Z,58.10
2019-04-07T14:13:37.948Z,58.00
2019-04-07T14:16:33.422Z,58.10
2019-04-07T14:19:11.301Z,58.70
2019-04-07T14:22:04.297Z,58.10
2019-04-07T14:24:56.718Z,58.20
2019-04-07T14:27:38.411Z,58.40
2019-04-07T14:30:33.349Z,58.50
2019-04-07T14:33:17.888Z,58.50
2019-04-07T14:36:15.061Z,58.60
2019-04-07T14:39:05.885Z,58.70
2019-04-07T14:42:05.035Z,58.70
2019-04-07T14:44:47.785Z,58.70
2019-04-07T14:47:27.293Z,58.70
2019-04-07T14:50:25.136Z,58.70
2019-04-07T14:53:18.667Z,58.60
2019-04-07T14:56:15.448Z,58.60
2019-04-07T14:59:04.088Z,58.80
2019-04-07T15:02:00.467Z,58.80
2019-04-07T15:04:35.741Z,59.00
2019-04-07T15:07:26.380Z,59.10
2019-04-07T15:10:05.067Z,59.10
2019-04-07T15:12:44.176Z,59.20
2019-04-07T15:15:16.065Z,59.10
2019-04-07T15:17:46.524Z,59.20
2019-04-07T15:20:17.812Z,59.20
2019-04-07T15:22:49.492Z,59.20
2019-04-07T15:25:22.626Z,59.30
2019-04-07T15:27:58.460Z,59.60
2019-04-07T15:30:28.576Z,59.50
2019-04-07T15:33:02.357Z,59.40
2019-04-07T15:35:34.121Z,59.50
2019-04-07T15:38:05.847Z,59.50
2019-04-07T15:40:37.433Z,59.50
2019-04-07T15:43:10.928Z,59.40
2019-04-07T15:45:44.410Z,59.60
2019-04-07T15:48:17.052Z,59.70
2019-04-07T15:50:49.089Z,59.60
2019-04-07T15:53:19.839Z,59.70
2019-04-07T15:56:01.203Z,59.70
2019-04-07T15:58:26.770Z,59.80
2019-04-07T16:01:00.214Z,59.70
2019-04-07T16:03:33.112Z,59.80
2019-04-07T16:06:04.666Z,59.80
2019-04-07T16:08:36.220Z,59.70
2019-04-07T16:11:08.036Z,59.70
2019-04-07T16:13:39.110Z,59.70
2019-04-07T16:16:11.326Z,59.80
2019-04-07T16:18:43.447Z,59.80
2019-04-07T16:21:18.036Z,60.00
2019-04-07T16:23:52.827Z,59.90
2019-04-07T16:26:22.499Z,59.80
2019-04-07T16:28:55.112Z,59.80
2019-04-07T16:31:27.170Z,59.90
2019-04-07T16:33:59.190Z,59.90
2019-04-07T16:36:30.938Z,60.10
2019-04-07T16:39:03.254Z,59.90
2019-04-07T16:41:35.294Z,59.80
2019-04-07T16:44:09.477Z,60.00
2019-04-07T16:46:41.183Z,60.00
2019-04-07T16:49:13.730Z,60.00
2019-04-07T16:51:47.295Z,60.20
2019-04-07T16:54:19.881Z,60.20
2019-04-07T16:56:55.175Z,60.00
2019-04-07T16:59:25.313Z,60.00
2019-04-07T17:01:57.006Z,60.10
2019-04-07T17:04:29.985Z,60.00
2019-04-07T17:07:04.429Z,60.20
2019-04-07T17:09:36.363Z,60.30
2019-04-07T17:12:10.954Z,60.20
2019-04-07T17:14:42.140Z,60.00
2019-04-07T17:17:16.841Z,60.10
2019-04-07T17:19:46.299Z,60.10
2019-04-07T17:22:18.121Z,60.20
2019-04-07T17:24:48.730Z,60.20
2019-04-07T17:27:20.506Z,60.30
2019-04-07T17:29:55.312Z,60.40
2019-04-07T17:32:26.308Z,60.30
2019-04-07T17:34:58.251Z,60.30
2019-04-07T17:37:29.716Z,60.50
2019-04-07T17:40:13.149Z,60.60
2019-04-07T17:42:42.546Z,60.40
2019-04-07T17:45:37.515Z,60.40
2019-04-07T17:48:38.153Z,60.60
2019-04-07T17:51:23.968Z,60.60
2019-04-07T17:54:29.422Z,60.70
2019-04-07T17:57:20.529Z,60.90
2019-04-07T18:00:11.717Z,60.80
2019-04-07T18:03:06.312Z,60.80
2019-04-07T18:06:00.477Z,60.90
2019-04-07T18:08:45.326Z,61.00
2019-04-07T18:11:54.068Z,60.80
2019-04-07T18:14:33.119Z,60.90
2019-04-07T18:17:44.536Z,60.90
2019-04-07T18:20:32.773Z,61.10
2019-04-07T18:23:37.144Z,61.00
2019-04-07T18:26:31.798Z,61.10
2019-04-07T18:29:23.159Z,61.20
2019-04-07T18:32:14.443Z,61.10
2019-04-07T18:35:14.137Z,61.10
2019-04-07T18:38:04.333Z,61.10
2019-04-07T18:40:46.370Z,61.10
2019-04-07T18:43:49.161Z,61.10
2019-04-07T18:46:28.903Z,61.10
2019-04-07T18:49:18.053Z,61.20
2019-04-07T18:52:08.684Z,61.20
2019-04-07T18:55:00.107Z,61.30
2019-04-07T18:57:48.888Z,61.30
2019-04-07T19:00:32.510Z,61.30
2019-04-07T19:03:16.383Z,61.30
2019-04-07T19:06:06.736Z,61.40
2019-04-07T19:08:58.314Z,61.30
2019-04-07T19:11:35.283Z,61.50
2019-04-07T19:14:39.435Z,61.60
2019-04-07T19:17:25.535Z,61.70
2019-04-07T19:20:19.364Z,61.50
2019-04-07T19:23:12.797Z,61.60
2019-04-07T19:26:01.557Z,61.50
2019-04-07T19:28:51.946Z,62.30
2019-04-07T19:31:50.444Z,61.40
2019-04-07T19:34:49.235Z,61.50
2019-04-07T19:37:35.282Z,61.30
2019-04-07T19:40:35.992Z,61.50
2019-04-07T19:43:29.245Z,61.60
2019-04-07T19:46:06.969Z,61.60
2019-04-07T19:48:50.796Z,61.60
2019-04-07T19:52:02.322Z,61.70
2019-04-07T19:54:57.885Z,61.50
2019-04-07T19:58:04.222Z,61.50
2019-04-07T20:01:10.574Z,62.40
2019-04-07T20:03:53.968Z,62.20
2019-04-07T20:06:44.014Z,61.70
2019-04-07T20:09:27.856Z,61.70
2019-04-07T20:12:11.623Z,62.50
2019-04-07T20:15:14.787Z,62.20
2019-04-07T20:18:18.712Z,62.00
2019-04-07T20:21:18.980Z,62.20
2019-04-07T20:24:01.397Z,62.40
2019-04-07T20:26:56.682Z,62.60
2019-04-07T20:29:41.577Z,62.20
2019-04-07T20:32:29.509Z,62.40
2019-04-07T20:35:18.693Z,62.40
2019-04-07T20:38:15.877Z,62.20
2019-04-07T20:40:52.569Z,62.10
2019-04-07T20:43:30.657Z,62.10
2019-04-07T20:46:27.515Z,62.00
2019-04-07T20:49:34.356Z,61.70
2019-04-07T20:52:30.902Z,62.00
2019-04-07T20:55:24.094Z,62.00
2019-04-07T20:58:16.252Z,61.90
2019-04-07T21:01:07.204Z,62.00
2019-04-07T21:03:59.961Z,62.00
2019-04-07T21:06:57.969Z,61.80
2019-04-07T21:09:46.789Z,61.80
2019-04-07T21:12:45.413Z,61.60
2019-04-07T21:15:41.188Z,61.60
2019-04-07T21:18:38.958Z,61.70
2019-04-07T21:21:35.293Z,61.40
2019-04-07T21:24:27.121Z,61.70
2019-04-07T21:27:06.095Z,62.10
2019-04-07T21:29:56.051Z,62.20
2019-04-07T21:32:38.724Z,62.40
2019-04-07T21:35:47.927Z,62.60
2019-04-07T21:38:42.076Z,62.60
2019-04-07T21:41:47.967Z,62.30
2019-04-07T21:44:51.304Z,62.20
2019-04-07T21:47:33.051Z,62.20
2019-04-07T21:50:23.593Z,62.00
2019-04-07T21:53:12.108Z,62.00
2019-04-07T21:56:01.684Z,62.20
2019-04-07T21:59:01.230Z,62.00
2019-04-07T22:01:43.269Z,62.00
2019-04-07T22:04:25.289Z,62.00
2019-04-07T22:07:13.235Z,62.20
2019-04-07T22:09:52.109Z,62.30
2019-04-07T22:12:28.045Z,62.20
2019-04-07T22:14:57.727Z,62.20
2019-04-07T22:17:32.599Z,62.20
2019-04-07T22:20:02.713Z,62.00
2019-04-07T22:22:34.060Z,62.20
2019-04-07T22:25:07.142Z,62.10
2019-04-07T22:27:39.380Z,62.00
2019-04-07T22:30:13.174Z,62.10
2019-04-07T22:32:44.827Z,61.80
2019-04-07T22:35:16.955Z,62.00
2019-04-07T22:37:49.991Z,62.20
2019-04-07T22:40:21.968Z,61.90
2019-04-07T22:42:52.627Z,61.90
2019-04-07T22:45:27.773Z,61.80
2019-04-07T22:47:57.165Z,62.00
2019-04-07T22:50:28.612Z,61.80
2019-04-07T22:53:00.183Z,62.00
2019-04-07T22:55:34.268Z,62.10
2019-04-07T22:58:05.398Z,62.20
2019-04-07T23:00:38.218Z,62.10
2019-04-07T23:03:09.983Z,62.20
2019-04-07T23:05:41.606Z,62.10
2019-04-07T23:08:12.930Z,62.20
2019-04-07T23:10:44.549Z,62.30
2019-04-07T23:13:15.774Z,62.40
2019-04-07T23:15:47.739Z,62.50
2019-04-07T23:18:20.676Z,62.50
2019-04-07T23:20:52.405Z,62.70
2019-04-07T23:23:23.920Z,62.80
2019-04-07T23:25:56.106Z,62.70
2019-04-07T23:31:08.260Z,63.00
2019-04-07T23:33:39.828Z,62.90
2019-04-07T23:36:11.603Z,62.90
2019-04-07T23:38:43.898Z,62.90
2019-04-07T23:41:15.925Z,63.00
2019-04-07T23:43:47.139Z,63.10
2019-04-07T23:46:24.281Z,63.30
2019-04-07T23:48:52.238Z,63.30
2019-04-07T23:51:23.862Z,63.60
2019-04-07T23:54:14.526Z,63.60
2019-04-07T23:56:45.814Z,63.60
2019-04-07T23:59:17.126Z,63.70
